createdAt,value
2023-11-12T00:00:13.262Z,99881.91
2023-11-12T00:02:40.579Z,99877.47
2023-11-12T00:05:12.824Z,99873.00
2023-11-12T00:07:40.124Z,99885.00
2023-11-12T00:10:12.919Z,99877.75
2023-11-12T00:12:43.290Z,99872.56
2023-11-12T00:15:10.895Z,99875.31
2023-11-12T00:17:42.162Z,99877.81
2023-11-12T00:20:16.500Z,99879.78
2023-11-12T00:22:44.891Z,99880.81
2023-11-12T00:25:14.069Z,99885.69
2023-11-12T00:27:41.690Z,99889.63
2023-11-12T00:30:10.656Z,99886.47
2023-11-12T00:32:38.311Z,99878.22
2023-11-12T00:35:06.371Z,99887.84
2023-11-12T00:37:33.979Z,99881.22
2023-11-12T00:40:01.581Z,99883.66
2023-11-12T00:42:28.831Z,99877.84
2023-11-12T00:44:56.387Z,99882.81
2023-11-12T00:47:23.852Z,99884.97
2023-11-12T00:49:52.469Z,99889.50
2023-11-12T00:52:19.662Z,99886.91
2023-11-12T00:54:46.842Z,99885.38
2023-11-12T00:57:14.185Z,99894.28
2023-11-12T00:59:42.109Z,99891.19
2023-11-12T01:02:12.009Z,99895.53
2023-11-12T01:04:39.189Z,99903.47
2023-11-12T01:07:06.412Z,99890.34
2023-11-12T01:09:35.857Z,99896.72
2023-11-12T01:12:03.339Z,99891.19
2023-11-12T01:14:30.542Z,99892.72
2023-11-12T01:16:57.768Z,99900.09
2023-11-12T01:19:24.950Z,99896.09
2023-11-12T01:21:52.160Z,99902.47
2023-11-12T01:24:20.947Z,99899.25
2023-11-12T01:26:48.157Z,99899.47
2023-11-12T01:29:15.583Z,99896.66
2023-11-12T01:31:42.872Z,99894.72
2023-11-12T01:34:10.131Z,99904.28
2023-11-12T01:36:37.343Z,99899.38
2023-11-12T01:39:08.590Z,99893.63
2023-11-12T01:41:36.263Z,99907.19
2023-11-12T01:44:03.826Z,99904.03
2023-11-12T01:46:31.889Z,99898.28
2023-11-12T01:49:00.933Z,99907.72
2023-11-12T01:51:30.869Z,99897.50
2023-11-12T01:54:00.326Z,99892.63
2023-11-12T01:56:27.969Z,99897.50
2023-11-12T01:58:58.769Z,99899.72
2023-11-12T02:01:26.138Z,99894.88
2023-11-12T02:03:54.337Z,99895.22
2023-11-12T02:06:21.715Z,99889.41
2023-11-12T02:08:48.933Z,99892.56
2023-11-12T02:11:16.926Z,99890.56
2023-11-12T02:13:44.687Z,99883.53
2023-11-12T02:16:12.166Z,99882.94
2023-11-12T02:18:45.024Z,99895.06
2023-11-12T02:21:12.176Z,99891.06
2023-11-12T02:23:39.816Z,99892.78
2023-11-12T02:26:06.994Z,99896.56
2023-11-12T02:28:34.231Z,99895.78
2023-11-12T02:31:01.593Z,99889.75
2023-11-12T02:33:29.295Z,99890.28
2023-11-12T02:35:57.107Z,99895.00
2023-11-12T02:38:25.578Z,99894.88
2023-11-12T02:40:52.919Z,99896.16
2023-11-12T02:43:21.222Z,99892.78
2023-11-12T02:45:48.993Z,99902.75
2023-11-12T02:48:16.697Z,99899.47
2023-11-12T02:50:44.412Z,99896.00
2023-11-12T02:53:13.046Z,99906.00
2023-11-12T02:55:43.101Z,99905.41
2023-11-12T02:58:11.367Z,99906.66
2023-11-12T03:00:39.238Z,99905.63
2023-11-12T03:03:06.648Z,99904.84
2023-11-12T03:05:33.953Z,99909.88
2023-11-12T03:08:01.219Z,99898.81
2023-11-12T03:10:29.230Z,99911.44
2023-11-12T03:12:56.444Z,99904.69
2023-11-12T03:15:25.375Z,99909.63
2023-11-12T03:17:53.765Z,99908.50
2023-11-12T03:20:21.410Z,99906.91
2023-11-12T03:22:48.647Z,99912.88
2023-11-12T03:25:16.125Z,99912.75
2023-11-12T03:27:43.514Z,99913.03
2023-11-12T03:30:11.899Z,99910.41
2023-11-12T03:32:39.485Z,99912.94
2023-11-12T03:35:07.656Z,99923.97
2023-11-12T03:37:34.890Z,99918.63
2023-11-12T03:40:02.130Z,99918.47
2023-11-12T03:42:29.377Z,99922.00
2023-11-12T03:44:58.157Z,99919.78
2023-11-12T03:47:25.995Z,99930.53
2023-11-12T03:49:53.195Z,99927.38
2023-11-12T03:52:20.355Z,99925.41
2023-11-12T03:54:47.595Z,99925.41
2023-11-12T03:57:15.567Z,99921.28
2023-11-12T03:59:42.884Z,99917.03
2023-11-12T04:02:10.121Z,99925.66
2023-11-12T04:04:37.580Z,99919.84
2023-11-12T04:07:05.171Z,99928.69
2023-11-12T04:09:32.411Z,99924.09
2023-11-12T04:11:59.674Z,99923.97
2023-11-12T04:14:26.892Z,99923.06
2023-11-12T04:16:54.111Z,99929.81
2023-11-12T04:19:21.302Z,99927.09
2023-11-12T04:21:48.978Z,99934.06
2023-11-12T04:24:16.527Z,99932.75
2023-11-12T04:26:44.293Z,99934.06
2023-11-12T04:29:14.278Z,99935.13
2023-11-12T04:31:41.695Z,99931.38
2023-11-12T04:34:08.925Z,99928.44
2023-11-12T04:36:39.098Z,99931.69
2023-11-12T04:39:08.483Z,99929.19
2023-11-12T04:41:35.710Z,99932.22
2023-11-12T04:44:02.881Z,99935.63
2023-11-12T04:46:31.267Z,99931.75
2023-11-12T04:48:59.885Z,99937.47
2023-11-12T04:51:27.891Z,99944.81
2023-11-12T04:53:55.352Z,99946.03
2023-11-12T04:56:22.595Z,99946.19
2023-11-12T04:58:50.453Z,99941.94
2023-11-12T05:01:18.200Z,99950.38
2023-11-12T05:03:46.945Z,99953.31
2023-11-12T05:06:15.493Z,99959.34
2023-11-12T05:08:43.223Z,99962.41
2023-11-12T05:11:10.466Z,99961.13
2023-11-12T05:13:38.277Z,99955.16
2023-11-12T05:16:06.202Z,99954.50
2023-11-12T05:18:33.406Z,99956.88
2023-11-12T05:21:00.580Z,99961.97
2023-11-12T05:23:28.064Z,99970.09
2023-11-12T05:25:59.312Z,99968.38
2023-11-12T05:28:28.290Z,99972.25
2023-11-12T05:30:58.547Z,99971.34
2023-11-12T05:33:25.852Z,99966.44
2023-11-12T05:35:53.038Z,99974.56
2023-11-12T05:38:20.213Z,99975.44
2023-11-12T05:40:47.531Z,99974.22
2023-11-12T05:43:14.792Z,99974.78
2023-11-12T05:45:42.000Z,99976.09
2023-11-12T05:48:11.661Z,99982.63
2023-11-12T05:50:39.617Z,99984.63
2023-11-12T05:53:06.813Z,99984.91
2023-11-12T05:55:34.173Z,99982.91
2023-11-12T05:58:01.469Z,99987.25
2023-11-12T06:00:28.842Z,99992.81
2023-11-12T06:02:56.759Z,99992.22
2023-11-12T06:05:23.985Z,99989.34
2023-11-12T06:07:51.163Z,99990.38
2023-11-12T06:10:18.719Z,99997.13
2023-11-12T06:12:45.982Z,100001.72
2023-11-12T06:15:13.544Z,99995.75
2023-11-12T06:17:40.817Z,100003.97
2023-11-12T06:20:08.721Z,100005.03
2023-11-12T06:22:35.960Z,100005.50
2023-11-12T06:25:03.684Z,99996.88
2023-11-12T06:27:30.924Z,100004.16
2023-11-12T06:29:58.969Z,100004.44
2023-11-12T06:32:26.179Z,100012.38
2023-11-12T06:34:53.462Z,100006.75
2023-11-12T06:37:20.694Z,100013.38
2023-11-12T06:39:47.946Z,100011.59
2023-11-12T06:42:15.773Z,100008.97
2023-11-12T06:44:43.376Z,100014.94
2023-11-12T06:47:10.561Z,100010.75
2023-11-12T06:49:37.711Z,100019.84
2023-11-12T06:52:05.476Z,100023.34
2023-11-12T06:54:32.692Z,100026.59
2023-11-12T06:57:00.832Z,100022.22
2023-11-12T06:59:29.339Z,100023.53
2023-11-12T07:01:56.567Z,100038.56
2023-11-12T07:04:24.397Z,100043.84
2023-11-12T07:07:01.929Z,100043.25
2023-11-12T07:09:36.889Z,100044.97
2023-11-12T07:12:05.600Z,100042.63
2023-11-12T07:14:33.005Z,100040.06
2023-11-12T07:17:00.576Z,100044.97
2023-11-12T07:19:27.922Z,100047.59
2023-11-12T07:21:55.518Z,100045.34
2023-11-12T07:24:22.838Z,100046.16
2023-11-12T07:26:50.130Z,100044.63
2023-11-12T07:29:17.388Z,100039.00
2023-11-12T07:31:44.667Z,100033.84
2023-11-12T07:34:11.976Z,100040.72
2023-11-12T07:36:39.219Z,100041.41
2023-11-12T07:39:08.131Z,100036.44
2023-11-12T07:41:35.828Z,100042.09
2023-11-12T07:44:03.578Z,100041.13
2023-11-12T07:46:30.852Z,100047.72
2023-11-12T07:48:58.471Z,100045.03
2023-11-12T07:51:25.829Z,100052.91
2023-11-12T07:53:53.174Z,100047.41
2023-11-12T07:56:24.687Z,100046.78
2023-11-12T07:58:55.135Z,100048.69
2023-11-12T08:01:22.351Z,100053.72
2023-11-12T08:03:49.611Z,100050.19
2023-11-12T08:06:16.910Z,100053.63
2023-11-12T08:08:44.122Z,100054.78
2023-11-12T08:11:11.316Z,100058.34
2023-11-12T08:13:39.977Z,100061.44
2023-11-12T08:16:09.195Z,100066.38
2023-11-12T08:18:38.079Z,100071.47
2023-11-12T08:21:06.626Z,100070.53
2023-11-12T08:23:33.862Z,100076.34
2023-11-12T08:26:03.283Z,100071.81
2023-11-12T08:28:30.754Z,100075.97
2023-11-12T08:30:58.001Z,100064.84
2023-11-12T08:33:25.298Z,100064.84
2023-11-12T08:35:53.512Z,100073.88
2023-11-12T08:38:20.821Z,100076.69
2023-11-12T08:40:48.032Z,100076.34
2023-11-12T08:43:15.930Z,100077.63
2023-11-12T08:45:43.216Z,100079.34
2023-11-12T08:48:10.488Z,100087.22
2023-11-12T08:50:37.757Z,100083.34
2023-11-12T08:53:05.017Z,100086.69
2023-11-12T08:55:32.790Z,100083.56
2023-11-12T08:58:00.085Z,100083.34
2023-11-12T09:00:27.293Z,100089.84
2023-11-12T09:02:54.614Z,100094.84
2023-11-12T09:05:21.939Z,100096.69
2023-11-12T09:07:49.139Z,100099.41
2023-11-12T09:10:16.330Z,100093.66
2023-11-12T09:12:43.678Z,100096.47
2023-11-12T09:15:12.293Z,100092.81
2023-11-12T09:17:39.612Z,100104.16
2023-11-12T09:20:14.515Z,100103.88
2023-11-12T09:22:41.931Z,100105.53
2023-11-12T09:25:12.078Z,100108.06
2023-11-12T09:27:39.738Z,100106.81
2023-11-12T09:30:09.682Z,100108.78
2023-11-12T09:32:37.215Z,100115.75
2023-11-12T09:35:07.050Z,100120.06
2023-11-12T09:37:34.392Z,100115.72
2023-11-12T09:40:02.324Z,100107.41
2023-11-12T09:42:30.188Z,100111.94
2023-11-12T09:45:00.632Z,100110.75
2023-11-12T09:48:04.391Z,100113.19
2023-11-12T09:50:32.415Z,100119.53
2023-11-12T09:53:04.254Z,100117.31
2023-11-12T09:55:32.058Z,100115.72
2023-11-12T09:58:02.601Z,100119.22
2023-11-12T10:00:35.507Z,100120.88
2023-11-12T10:03:07.108Z,100107.50
2023-11-12T10:05:35.845Z,100122.41
2023-11-12T10:08:05.844Z,100116.00
2023-11-12T10:10:34.687Z,100118.09
2023-11-12T10:13:05.491Z,100111.19
2023-11-12T10:15:35.145Z,100127.88
2023-11-12T10:18:04.845Z,100119.41
2023-11-12T10:20:40.982Z,100113.47
2023-11-12T10:23:32.621Z,100112.75
2023-11-12T10:26:00.935Z,100124.59
2023-11-12T10:28:35.238Z,100118.94
2023-11-12T10:31:03.147Z,100126.78
2023-11-12T10:33:30.768Z,100121.72
2023-11-12T10:36:08.979Z,100120.28
2023-11-12T10:38:53.239Z,100123.59
2023-11-12T10:41:20.707Z,100129.94
2023-11-12T10:44:00.107Z,100121.06
2023-11-12T10:46:29.357Z,100130.28
2023-11-12T10:48:57.130Z,100123.72
2023-11-12T10:51:26.535Z,100120.38
2023-11-12T10:53:57.623Z,100122.69
2023-11-12T10:56:25.566Z,100122.31
2023-11-12T10:58:57.616Z,100119.09
2023-11-12T11:01:27.166Z,100123.28
2023-11-12T11:03:55.774Z,100119.09
2023-11-12T11:06:25.755Z,100119.00
2023-11-12T11:08:52.943Z,100124.91
2023-11-12T11:11:22.368Z,100129.91
2023-11-12T11:13:49.632Z,100126.72
2023-11-12T11:16:48.681Z,100123.88
2023-11-12T11:19:16.069Z,100124.06
2023-11-12T11:22:22.243Z,100117.97
2023-11-12T11:24:49.460Z,100121.38
2023-11-12T11:27:20.059Z,100117.97
2023-11-12T11:30:15.209Z,100112.09
2023-11-12T11:32:58.760Z,100118.72
2023-11-12T11:35:27.836Z,100116.19
2023-11-12T11:38:07.056Z,100119.00
2023-11-12T11:40:35.872Z,100109.44
2023-11-12T11:43:24.698Z,100105.47
2023-11-12T11:46:14.503Z,100108.44
2023-11-12T11:48:44.743Z,100106.94
2023-11-12T11:51:39.090Z,100109.75
2023-11-12T11:54:07.742Z,100096.34
2023-11-12T11:56:35.354Z,100099.22
2023-11-12T11:59:03.058Z,100097.44
2023-11-12T12:01:30.612Z,100089.38
2023-11-12T12:04:07.119Z,100092.06
2023-11-12T12:06:34.759Z,100083.22
2023-11-12T12:09:02.166Z,100077.97
2023-11-12T12:11:29.409Z,100077.22
2023-11-12T12:14:01.908Z,100079.88
2023-11-12T12:16:34.504Z,100075.03
2023-11-12T12:19:03.447Z,100081.59
2023-11-12T12:21:35.322Z,100082.81
2023-11-12T12:24:07.140Z,100088.00
2023-11-12T12:26:34.988Z,100072.75
2023-11-12T12:29:02.170Z,100077.25
2023-11-12T12:31:29.977Z,100083.25
2023-11-12T12:34:09.384Z,100086.69
2023-11-12T12:36:37.663Z,100094.50
2023-11-12T12:39:13.516Z,100084.72
2023-11-12T12:41:40.779Z,100086.38
2023-11-12T12:44:28.852Z,100090.34
2023-11-12T12:46:56.421Z,100087.41
2023-11-12T12:49:34.768Z,100085.59
2023-11-12T12:52:04.141Z,100096.03
2023-11-12T12:54:32.076Z,100085.78
2023-11-12T12:57:00.609Z,100091.41
2023-11-12T12:59:36.272Z,100083.25
2023-11-12T13:02:04.875Z,100079.97
2023-11-12T13:04:34.109Z,100078.84
2023-11-12T13:07:03.052Z,100091.47
2023-11-12T13:09:33.020Z,100090.09
2023-11-12T13:12:00.350Z,100101.41
2023-11-12T13:14:27.526Z,100088.69
2023-11-12T13:16:55.644Z,100089.28
2023-11-12T13:19:24.444Z,100094.72
2023-11-12T13:21:57.381Z,100091.03
2023-11-12T13:24:30.445Z,100093.50
2023-11-12T13:26:58.880Z,100091.44
2023-11-12T13:29:28.309Z,100092.88
2023-11-12T13:31:57.673Z,100101.56
2023-11-12T13:34:25.283Z,100094.97
2023-11-12T13:36:52.772Z,100110.00
2023-11-12T13:39:20.165Z,100110.09
2023-11-12T13:41:48.086Z,100115.72
2023-11-12T13:44:16.460Z,100108.88
2023-11-12T13:46:44.105Z,100117.78
2023-11-12T13:49:11.898Z,100110.44
2023-11-12T13:51:42.286Z,100117.78
2023-11-12T13:54:11.522Z,100115.22
2023-11-12T13:56:40.190Z,100119.47
2023-11-12T13:59:09.938Z,100125.06
2023-11-12T14:01:37.164Z,100125.81
2023-11-12T14:04:08.707Z,100127.50
2023-11-12T14:06:37.400Z,100131.66
2023-11-12T14:09:05.155Z,100132.50
2023-11-12T14:11:33.784Z,100131.63
2023-11-12T14:14:01.425Z,100130.06
2023-11-12T14:16:29.961Z,100134.28
2023-11-12T14:18:57.230Z,100142.66
2023-11-12T14:21:25.148Z,100146.75
2023-11-12T14:23:52.414Z,100147.84
2023-11-12T14:26:21.260Z,100152.13
2023-11-12T14:28:50.278Z,100145.25
2023-11-12T14:31:21.693Z,100158.16
2023-11-12T14:33:50.384Z,100154.09
2023-11-12T14:36:17.711Z,100167.22
2023-11-12T14:38:44.942Z,100166.38
2023-11-12T14:41:12.298Z,100164.09
2023-11-12T14:43:40.970Z,100169.50
2023-11-12T14:46:09.058Z,100172.88
2023-11-12T14:48:36.409Z,100175.63
2023-11-12T14:51:06.472Z,100178.88
2023-11-12T14:53:34.013Z,100173.63
2023-11-12T14:56:01.329Z,100177.28
2023-11-12T14:58:28.542Z,100181.66
2023-11-12T15:00:55.943Z,100179.28
2023-11-12T15:03:26.286Z,100179.47
2023-11-12T15:05:53.592Z,100182.56
2023-11-12T15:08:21.037Z,100191.72
2023-11-12T15:10:48.620Z,100187.91
2023-11-12T15:13:15.766Z,100193.28
2023-11-12T15:15:43.329Z,100192.22
2023-11-12T15:18:14.195Z,100196.91
2023-11-12T15:20:43.082Z,100191.06
2023-11-12T15:23:10.270Z,100190.28
2023-11-12T15:25:39.148Z,100188.06
2023-11-12T15:28:06.415Z,100190.28
2023-11-12T15:30:34.584Z,100187.75
2023-11-12T15:33:01.937Z,100183.06
2023-11-12T15:35:29.163Z,100185.25
2023-11-12T15:37:56.378Z,100178.97
2023-11-12T15:40:24.552Z,100180.78
2023-11-12T15:42:56.682Z,100180.94
2023-11-12T15:45:26.782Z,100188.06
2023-11-12T15:47:54.729Z,100191.44
2023-11-12T15:50:30.249Z,100191.59
2023-11-12T15:53:01.451Z,100197.31
2023-11-12T15:55:29.133Z,100195.41
2023-11-12T15:57:56.448Z,100196.78
2023-11-12T16:00:25.209Z,100196.53
2023-11-12T16:02:56.939Z,100198.13
2023-11-12T16:05:28.947Z,100205.53
2023-11-12T16:07:57.480Z,100198.34
2023-11-12T16:10:24.654Z,100200.69
2023-11-12T16:12:51.964Z,100205.75
2023-11-12T16:15:20.163Z,100203.19
2023-11-12T16:17:49.678Z,100211.56
2023-11-12T16:20:17.063Z,100208.44
2023-11-12T16:22:47.646Z,100209.63
2023-11-12T16:25:15.389Z,100214.78
2023-11-12T16:27:42.688Z,100208.03
2023-11-12T16:30:10.630Z,100210.41
2023-11-12T16:32:37.919Z,100216.84
2023-11-12T16:35:07.138Z,100211.06
2023-11-12T16:37:34.470Z,100218.28
2023-11-12T16:40:01.955Z,100208.56
2023-11-12T16:42:29.397Z,100215.84
2023-11-12T16:44:57.747Z,100218.44
2023-11-12T16:47:25.375Z,100218.53
2023-11-12T16:49:54.654Z,100216.56
2023-11-12T16:52:22.773Z,100220.72
2023-11-12T16:54:50.194Z,100221.50
2023-11-12T16:57:17.609Z,100228.97
2023-11-12T16:59:44.813Z,100223.00
2023-11-12T17:02:14.951Z,100220.66
2023-11-12T17:04:42.539Z,100225.44
2023-11-12T17:07:12.139Z,100227.34
2023-11-12T17:09:41.979Z,100228.91
2023-11-12T17:12:13.707Z,100232.47
2023-11-12T17:14:44.126Z,100231.41
2023-11-12T17:17:12.489Z,100233.13
2023-11-12T17:19:39.736Z,100241.44
2023-11-12T17:22:08.704Z,100249.94
2023-11-12T17:24:36.705Z,100244.00
2023-11-12T17:27:05.964Z,100243.22
2023-11-12T17:29:33.294Z,100244.53
2023-11-12T17:32:00.534Z,100246.09
2023-11-12T17:34:27.702Z,100246.81
2023-11-12T17:37:04.481Z,100248.94
2023-11-12T17:39:31.688Z,100252.31
2023-11-12T17:41:59.037Z,100250.59
2023-11-12T17:44:26.304Z,100254.00
2023-11-12T17:46:58.100Z,100259.34
2023-11-12T17:49:25.592Z,100264.63
2023-11-12T17:51:52.803Z,100262.56
2023-11-12T17:54:20.307Z,100275.75
2023-11-12T17:56:48.931Z,100273.28
2023-11-12T17:59:16.815Z,100273.94
2023-11-12T18:01:44.343Z,100274.63
2023-11-12T18:04:11.821Z,100273.81
2023-11-12T18:06:44.067Z,100272.25
2023-11-12T18:09:12.807Z,100263.88
2023-11-12T18:11:40.077Z,100271.72
2023-11-12T18:14:07.286Z,100267.25
2023-11-12T18:16:37.929Z,100263.22
2023-11-12T18:19:05.225Z,100266.44
2023-11-12T18:21:32.556Z,100277.22
2023-11-12T18:24:01.313Z,100266.31
2023-11-12T18:26:30.231Z,100269.31
2023-11-12T18:28:57.569Z,100270.38
2023-11-12T18:31:26.103Z,100272.25
2023-11-12T18:33:53.681Z,100275.81
2023-11-12T18:36:20.938Z,100273.69
2023-11-12T18:38:48.102Z,100270.31
2023-11-12T18:41:15.692Z,100275.22
2023-11-12T18:43:42.861Z,100270.38
2023-11-12T18:46:10.242Z,100274.59
2023-11-12T18:48:41.166Z,100275.50
2023-11-12T18:51:08.513Z,100275.50
2023-11-12T18:53:35.886Z,100272.41
2023-11-12T18:56:08.132Z,100280.94
2023-11-12T18:58:35.908Z,100281.88
2023-11-12T19:01:04.060Z,100274.66
2023-11-12T19:03:31.349Z,100282.72
2023-11-12T19:05:58.687Z,100281.22
2023-11-12T19:08:25.828Z,100288.19
2023-11-12T19:10:53.056Z,100289.84
2023-11-12T19:13:20.296Z,100291.19
2023-11-12T19:15:47.606Z,100297.31
2023-11-12T19:18:14.914Z,100296.19
2023-11-12T19:20:42.182Z,100294.59
2023-11-12T19:23:09.802Z,100296.75
2023-11-12T19:25:40.300Z,100300.19
2023-11-12T19:28:07.628Z,100306.00
2023-11-12T19:30:35.842Z,100306.72
2023-11-12T19:33:03.607Z,100306.34
2023-11-12T19:35:31.948Z,100303.38
2023-11-12T19:37:59.324Z,100308.59
2023-11-12T19:40:26.904Z,100318.28
2023-11-12T19:42:54.464Z,100319.34
2023-11-12T19:45:22.755Z,100324.13
2023-11-12T19:47:55.065Z,100326.78
2023-11-12T19:50:23.549Z,100336.41
2023-11-12T19:52:51.138Z,100335.69
2023-11-12T19:55:20.346Z,100328.56
2023-11-12T19:57:52.706Z,100343.22
2023-11-12T20:00:21.061Z,100342.63
2023-11-12T20:02:51.195Z,100340.09
2023-11-12T20:05:18.968Z,100334.44
2023-11-12T20:07:46.172Z,100343.16
2023-11-12T20:10:14.294Z,100354.56
2023-11-12T20:12:41.857Z,100347.50
2023-11-12T20:15:10.028Z,100353.63
2023-11-12T20:17:39.104Z,100359.81
2023-11-12T20:20:07.061Z,100357.53
2023-11-12T20:22:34.283Z,100365.44
2023-11-12T20:25:01.558Z,100366.16
2023-11-12T20:27:28.955Z,100364.53
2023-11-12T20:29:57.350Z,100374.41
2023-11-12T20:32:25.339Z,100370.91
2023-11-12T20:34:53.593Z,100371.66
2023-11-12T20:37:20.893Z,100371.66
2023-11-12T20:39:50.625Z,100374.09
2023-11-12T20:42:17.917Z,100380.63
2023-11-12T20:44:45.244Z,100374.09
2023-11-12T20:47:13.615Z,100368.34
2023-11-12T20:49:43.413Z,100374.84
2023-11-12T20:52:10.946Z,100370.13
2023-11-12T20:54:38.488Z,100375.72
2023-11-12T20:57:07.220Z,100378.22
2023-11-12T20:59:34.800Z,100372.06
2023-11-12T21:02:10.353Z,100376.34
2023-11-12T21:04:45.988Z,100369.81
2023-11-12T21:07:13.919Z,100369.19
2023-11-12T21:09:42.790Z,100355.28
2023-11-12T21:12:10.342Z,100351.78
2023-11-12T21:14:38.561Z,100361.34
2023-11-12T21:17:05.844Z,100358.78
2023-11-12T21:19:34.924Z,100362.81
2023-11-12T21:22:02.506Z,100360.66
2023-11-12T21:24:30.227Z,100358.66
2023-11-12T21:26:58.677Z,100356.84
2023-11-12T21:29:26.512Z,100361.09
2023-11-12T21:31:55.234Z,100359.25
2023-11-12T21:34:23.016Z,100356.31
2023-11-12T21:36:51.052Z,100360.66
2023-11-12T21:39:20.309Z,100358.81
2023-11-12T21:41:49.207Z,100364.66
2023-11-12T21:44:18.844Z,100362.78
2023-11-12T21:46:47.861Z,100365.91
2023-11-12T21:49:15.838Z,100354.94
2023-11-12T21:51:44.173Z,100353.25
2023-11-12T21:54:11.899Z,100354.31
2023-11-12T21:56:39.096Z,100348.16
2023-11-12T21:59:06.973Z,100349.50
2023-11-12T22:01:34.260Z,100361.50
2023-11-12T22:04:03.163Z,100361.69
2023-11-12T22:06:30.688Z,100357.53
2023-11-12T22:08:57.900Z,100351.09
2023-11-12T22:11:26.526Z,100357.66
2023-11-12T22:13:54.680Z,100363.09
2023-11-12T22:16:21.987Z,100357.09
2023-11-12T22:18:49.263Z,100369.00
2023-11-12T22:21:17.753Z,100383.16
2023-11-12T22:23:45.426Z,100377.88
2023-11-12T22:26:12.583Z,100394.34
2023-11-12T22:28:39.867Z,100402.28
2023-11-12T22:31:07.226Z,100402.91
2023-11-12T22:33:34.505Z,100406.38
2023-11-12T22:36:01.669Z,100406.00
2023-11-12T22:38:28.830Z,100414.25
2023-11-12T22:40:57.406Z,100408.19
2023-11-12T22:43:26.010Z,100415.03
2023-11-12T22:45:53.450Z,100423.41
2023-11-12T22:48:20.657Z,100418.53
2023-11-12T22:50:47.997Z,100422.59
2023-11-12T22:53:16.246Z,100419.13
2023-11-12T22:55:43.703Z,100419.31
2023-11-12T22:58:11.325Z,100426.88
2023-11-12T23:00:50.187Z,100435.13
2023-11-12T23:03:18.719Z,100429.44
2023-11-12T23:05:50.201Z,100438.38
2023-11-12T23:08:17.408Z,100443.09
2023-11-12T23:10:45.894Z,100444.91
2023-11-12T23:13:14.365Z,100439.72
2023-11-12T23:15:44.240Z,100442.44
2023-11-12T23:18:12.997Z,100437.63
2023-11-12T23:20:40.857Z,100444.38
2023-11-12T23:23:08.205Z,100443.34
2023-11-12T23:25:35.417Z,100438.09
2023-11-12T23:28:02.723Z,100436.63
2023-11-12T23:30:30.171Z,100427.28
2023-11-12T23:32:57.652Z,100436.03
2023-11-12T23:35:27.237Z,100431.88
2023-11-12T23:37:54.806Z,100436.84
2023-11-12T23:40:22.080Z,100441.63
2023-11-12T23:42:49.482Z,100446.69
2023-11-12T23:45:17.887Z,100444.28
2023-11-12T23:47:45.104Z,100444.81
2023-11-12T23:50:12.624Z,100445.69
2023-11-12T23:52:39.965Z,100441.78
2023-11-12T23:55:07.886Z,100444.91
2023-11-12T23:57:35.861Z,100436.09
